sensor_id;sensor_type;location;lat;lon;timestamp;pressure;altitude;pressure_sealevel;temperature;humidity
23321;BME280;33376;51.306;4.752;2023-07-22T00:01:58;101006.81;;;14.14;100.00
23321;BME280;33376;51.306;4.752;2023-07-22T00:04:23;101010.75;;;14.08;100.00
23321;BME280;33376;51.306;4.752;2023-07-22T00:06:48;101038.88;;;14.00;100.00
23321;BME280;33376;51.306;4.752;2023-07-22T00:09:13;101059.75;;;13.93;100.00
23321;BME280;33376;51.306;4.752;2023-07-22T00:11:39;101077.53;;;14.07;100.00
23321;BME280;33376;51.306;4.752;2023-07-22T00:14:04;101085.06;;;14.00;100.00
23321;BME280;33376;51.306;4.752;2023-07-22T00:16:31;101099.22;;;14.15;100.00
23321;BME280;33376;51.306;4.752;2023-07-22T00:18:56;101112.38;;;14.04;100.00
23321;BME280;33376;51.306;4.752;2023-07-22T00:21:21;101123.69;;;14.07;100.00
23321;BME280;33376;51.306;4.752;2023-07-22T00:23:47;101142.09;;;14.12;100.00
23321;BME280;33376;51.306;4.752;2023-07-22T00:26:12;101150.91;;;14.12;100.00
23321;BME280;33376;51.306;4.752;2023-07-22T00:28:37;101172.06;;;14.15;100.00
23321;BME280;33376;51.306;4.752;2023-07-22T00:31:03;101165.41;;;14.08;100.00
23321;BME280;33376;51.306;4.752;2023-07-22T00:33:28;101150.44;;;14.20;100.00
23321;BME280;33376;51.306;4.752;2023-07-22T00:35:53;101138.16;;;14.17;100.00
23321;BME280;33376;51.306;4.752;2023-07-22T00:38:19;101125.00;;;14.14;100.00
23321;BME280;33376;51.306;4.752;2023-07-22T00:40:44;101107.31;;;14.13;100.00
23321;BME280;33376;51.306;4.752;2023-07-22T00:43:10;101077.38;;;14.22;100.00
23321;BME280;33376;51.306;4.752;2023-07-22T00:45:36;101053.56;;;14.19;100.00
23321;BME280;33376;51.306;4.752;2023-07-22T00:48:01;101038.72;;;14.15;100.00
23321;BME280;33376;51.306;4.752;2023-07-22T00:50:27;101055.16;;;14.22;100.00
23321;BME280;33376;51.306;4.752;2023-07-22T00:52:52;101065.66;;;14.25;100.00
23321;BME280;33376;51.306;4.752;2023-07-22T00:55:17;101063.00;;;14.25;100.00
23321;BME280;33376;51.306;4.752;2023-07-22T00:57:43;101060.16;;;14.28;100.00
23321;BME280;33376;51.306;4.752;2023-07-22T01:00:10;101075.50;;;14.24;100.00
23321;BME280;33376;51.306;4.752;2023-07-22T01:02:37;101063.34;;;14.33;100.00
23321;BME280;33376;51.306;4.752;2023-07-22T01:05:03;101059.84;;;14.32;100.00
23321;BME280;33376;51.306;4.752;2023-07-22T01:07:28;101048.19;;;14.33;100.00
23321;BME280;33376;51.306;4.752;2023-07-22T01:09:58;101050.09;;;14.31;100.00
23321;BME280;33376;51.306;4.752;2023-07-22T01:12:23;101046.22;;;14.23;100.00
23321;BME280;33376;51.306;4.752;2023-07-22T01:14:48;101048.34;;;14.18;100.00
23321;BME280;33376;51.306;4.752;2023-07-22T01:17:13;101038.63;;;14.17;100.00
23321;BME280;33376;51.306;4.752;2023-07-22T01:19:39;101024.66;;;14.13;100.00
23321;BME280;33376;51.306;4.752;2023-07-22T01:22:05;101016.31;;;14.05;100.00
23321;BME280;33376;51.306;4.752;2023-07-22T01:24:32;100999.84;;;13.99;100.00
23321;BME280;33376;51.306;4.752;2023-07-22T01:26:58;100994.31;;;14.02;100.00
23321;BME280;33376;51.306;4.752;2023-07-22T01:29:23;101024.31;;;14.05;100.00
23321;BME280;33376;51.306;4.752;2023-07-22T01:31:50;101026.97;;;14.05;100.00
23321;BME280;33376;51.306;4.752;2023-07-22T01:34:15;101014.09;;;14.12;100.00
23321;BME280;33376;51.306;4.752;2023-07-22T01:36:40;101019.19;;;14.02;100.00
23321;BME280;33376;51.306;4.752;2023-07-22T01:39:05;101021.19;;;13.99;100.00
23321;BME280;33376;51.306;4.752;2023-07-22T01:41:31;101048.16;;;13.94;100.00
23321;BME280;33376;51.306;4.752;2023-07-22T01:43:56;101066.44;;;13.86;100.00
23321;BME280;33376;51.306;4.752;2023-07-22T01:46:21;101079.41;;;13.78;100.00
23321;BME280;33376;51.306;4.752;2023-07-22T01:48:47;101066.66;;;13.83;100.00
23321;BME280;33376;51.306;4.752;2023-07-22T01:51:12;101062.34;;;13.81;100.00
23321;BME280;33376;51.306;4.752;2023-07-22T01:53:37;101069.88;;;13.74;100.00
23321;BME280;33376;51.306;4.752;2023-07-22T01:56:02;101076.28;;;13.72;100.00
23321;BME280;33376;51.306;4.752;2023-07-22T01:58:27;101076.78;;;13.64;100.00
23321;BME280;33376;51.306;4.752;2023-07-22T02:00:53;101089.13;;;13.65;100.00
23321;BME280;33376;51.306;4.752;2023-07-22T02:03:18;101102.25;;;13.68;100.00
23321;BME280;33376;51.306;4.752;2023-07-22T02:05:43;101094.75;;;13.61;100.00
23321;BME280;33376;51.306;4.752;2023-07-22T02:08:08;101098.75;;;13.54;100.00
23321;BME280;33376;51.306;4.752;2023-07-22T02:10:35;101104.56;;;13.46;100.00
23321;BME280;33376;51.306;4.752;2023-07-22T02:13:00;101120.53;;;13.46;100.00
23321;BME280;33376;51.306;4.752;2023-07-22T02:15:25;101105.22;;;13.36;100.00
23321;BME280;33376;51.306;4.752;2023-07-22T02:17:51;101102.94;;;13.30;100.00
23321;BME280;33376;51.306;4.752;2023-07-22T02:20:16;101115.41;;;13.29;100.00
23321;BME280;33376;51.306;4.752;2023-07-22T02:22:42;101112.16;;;13.24;100.00
23321;BME280;33376;51.306;4.752;2023-07-22T02:25:07;101114.63;;;13.13;100.00
23321;BME280;33376;51.306;4.752;2023-07-22T02:27:35;101118.22;;;13.12;100.00
23321;BME280;33376;51.306;4.752;2023-07-22T02:30:00;101126.22;;;13.12;100.00
23321;BME280;33376;51.306;4.752;2023-07-22T02:32:25;101136.78;;;13.13;100.00
23321;BME280;33376;51.306;4.752;2023-07-22T02:34:51;101127.38;;;13.08;100.00
23321;BME280;33376;51.306;4.752;2023-07-22T02:37:16;101123.09;;;12.90;100.00
23321;BME280;33376;51.306;4.752;2023-07-22T02:39:41;101125.00;;;12.88;100.00
23321;BME280;33376;51.306;4.752;2023-07-22T02:42:06;101135.81;;;12.85;100.00
23321;BME280;33376;51.306;4.752;2023-07-22T02:44:32;101149.59;;;12.77;100.00
23321;BME280;33376;51.306;4.752;2023-07-22T02:46:57;101150.28;;;12.81;100.00
23321;BME280;33376;51.306;4.752;2023-07-22T02:49:23;101162.13;;;12.75;100.00
23321;BME280;33376;51.306;4.752;2023-07-22T02:51:49;101170.47;;;12.69;100.00
23321;BME280;33376;51.306;4.752;2023-07-22T02:54:14;101166.19;;;12.67;100.00
23321;BME280;33376;51.306;4.752;2023-07-22T02:56:39;101165.22;;;12.68;100.00
23321;BME280;33376;51.306;4.752;2023-07-22T02:59:04;101169.59;;;12.69;100.00
23321;BME280;33376;51.306;4.752;2023-07-22T03:01:30;101164.03;;;12.58;100.00
23321;BME280;33376;51.306;4.752;2023-07-22T03:03:56;101126.72;;;12.59;100.00
23321;BME280;33376;51.306;4.752;2023-07-22T03:06:21;101129.03;;;12.50;100.00
23321;BME280;33376;51.306;4.752;2023-07-22T03:08:47;101127.06;;;12.53;100.00
23321;BME280;33376;51.306;4.752;2023-07-22T03:11:13;101128.13;;;12.51;100.00
23321;BME280;33376;51.306;4.752;2023-07-22T03:13:38;101138.84;;;12.49;100.00
23321;BME280;33376;51.306;4.752;2023-07-22T03:16:04;101141.84;;;12.43;100.00
23321;BME280;33376;51.306;4.752;2023-07-22T03:18:29;101147.25;;;12.42;100.00
23321;BME280;33376;51.306;4.752;2023-07-22T03:20:55;101143.81;;;12.40;100.00
23321;BME280;33376;51.306;4.752;2023-07-22T03:23:20;101153.00;;;12.34;100.00
23321;BME280;33376;51.306;4.752;2023-07-22T03:25:46;101161.06;;;12.33;100.00
23321;BME280;33376;51.306;4.752;2023-07-22T03:28:11;101168.38;;;12.29;100.00
23321;BME280;33376;51.306;4.752;2023-07-22T03:30:37;101177.22;;;12.30;100.00
23321;BME280;33376;51.306;4.752;2023-07-22T03:33:02;101174.28;;;12.34;100.00
23321;BME280;33376;51.306;4.752;2023-07-22T03:35:33;101176.25;;;12.31;100.00
23321;BME280;33376;51.306;4.752;2023-07-22T03:38:05;101178.03;;;12.30;100.00
23321;BME280;33376;51.306;4.752;2023-07-22T03:40:31;101178.31;;;12.26;100.00
23321;BME280;33376;51.306;4.752;2023-07-22T03:42:58;101188.84;;;12.27;100.00
23321;BME280;33376;51.306;4.752;2023-07-22T03:45:26;101188.09;;;12.25;100.00
23321;BME280;33376;51.306;4.752;2023-07-22T03:47:55;101183.44;;;12.29;100.00
23321;BME280;33376;51.306;4.752;2023-07-22T03:50:20;101185.44;;;12.25;100.00
23321;BME280;33376;51.306;4.752;2023-07-22T03:52:47;101179.19;;;12.26;100.00
23321;BME280;33376;51.306;4.752;2023-07-22T03:55:15;101188.94;;;12.26;100.00
23321;BME280;33376;51.306;4.752;2023-07-22T03:57:46;101187.25;;;12.25;100.00
23321;BME280;33376;51.306;4.752;2023-07-22T04:00:11;101197.69;;;12.28;100.00
23321;BME280;33376;51.306;4.752;2023-07-22T04:02:38;101211.00;;;12.28;100.00
23321;BME280;33376;51.306;4.752;2023-07-22T04:05:03;101222.75;;;12.39;100.00
23321;BME280;33376;51.306;4.752;2023-07-22T04:07:32;101236.22;;;12.52;100.00
23321;BME280;33376;51.306;4.752;2023-07-22T04:09:57;101241.97;;;12.60;100.00
23321;BME280;33376;51.306;4.752;2023-07-22T04:12:22;101243.50;;;12.64;100.00
23321;BME280;33376;51.306;4.752;2023-07-22T04:14:48;101244.25;;;12.66;100.00
23321;BME280;33376;51.306;4.752;2023-07-22T04:17:13;101252.75;;;12.72;100.00
23321;BME280;33376;51.306;4.752;2023-07-22T04:19:40;101252.06;;;12.69;100.00
23321;BME280;33376;51.306;4.752;2023-07-22T04:22:05;101256.56;;;12.68;100.00
23321;BME280;33376;51.306;4.752;2023-07-22T04:24:31;101244.97;;;12.69;100.00
23321;BME280;33376;51.306;4.752;2023-07-22T04:26:56;101243.41;;;12.81;100.00
23321;BME280;33376;51.306;4.752;2023-07-22T04:29:29;101231.53;;;12.86;100.00
23321;BME280;33376;51.306;4.752;2023-07-22T04:32:01;101220.09;;;13.00;100.00
23321;BME280;33376;51.306;4.752;2023-07-22T04:34:32;101235.78;;;13.20;100.00
23321;BME280;33376;51.306;4.752;2023-07-22T04:36:57;101225.16;;;13.34;100.00
23321;BME280;33376;51.306;4.752;2023-07-22T04:39:23;101223.28;;;13.50;100.00
23321;BME280;33376;51.306;4.752;2023-07-22T04:41:48;101205.22;;;13.55;100.00
23321;BME280;33376;51.306;4.752;2023-07-22T04:44:13;101194.56;;;13.69;100.00
23321;BME280;33376;51.306;4.752;2023-07-22T04:46:38;101185.06;;;13.79;100.00
23321;BME280;33376;51.306;4.752;2023-07-22T04:49:04;101181.81;;;13.88;100.00
23321;BME280;33376;51.306;4.752;2023-07-22T04:51:29;101169.94;;;13.80;100.00
23321;BME280;33376;51.306;4.752;2023-07-22T04:53:56;101173.63;;;13.91;100.00
23321;BME280;33376;51.306;4.752;2023-07-22T04:56:22;101164.66;;;14.06;100.00
23321;BME280;33376;51.306;4.752;2023-07-22T04:58:47;101156.25;;;14.12;100.00
23321;BME280;33376;51.306;4.752;2023-07-22T05:01:14;101141.69;;;14.18;100.00
23321;BME280;33376;51.306;4.752;2023-07-22T05:03:39;101139.03;;;14.44;100.00
23321;BME280;33376;51.306;4.752;2023-07-22T05:06:11;101121.38;;;14.56;100.00
23321;BME280;33376;51.306;4.752;2023-07-22T05:08:36;101102.50;;;14.72;100.00
23321;BME280;33376;51.306;4.752;2023-07-22T05:11:03;101089.50;;;14.80;100.00
23321;BME280;33376;51.306;4.752;2023-07-22T05:13:29;101085.69;;;14.96;100.00
23321;BME280;33376;51.306;4.752;2023-07-22T05:15:54;101079.06;;;15.02;100.00
23321;BME280;33376;51.306;4.752;2023-07-22T05:18:19;101067.44;;;15.15;100.00
23321;BME280;33376;51.306;4.752;2023-07-22T05:20:44;101043.59;;;15.25;100.00
23321;BME280;33376;51.306;4.752;2023-07-22T05:23:10;101024.03;;;15.24;100.00
23321;BME280;33376;51.306;4.752;2023-07-22T05:25:42;101004.38;;;15.13;100.00
23321;BME280;33376;51.306;4.752;2023-07-22T05:28:07;100995.72;;;15.22;100.00
23321;BME280;33376;51.306;4.752;2023-07-22T05:30:32;100988.75;;;15.32;100.00
23321;BME280;33376;51.306;4.752;2023-07-22T05:32:57;100965.97;;;15.51;100.00
23321;BME280;33376;51.306;4.752;2023-07-22T05:35:23;100945.03;;;15.92;100.00
23321;BME280;33376;51.306;4.752;2023-07-22T05:37:48;100911.53;;;16.45;100.00
23321;BME280;33376;51.306;4.752;2023-07-22T05:40:14;100855.44;;;17.10;100.00
23321;BME280;33376;51.306;4.752;2023-07-22T05:42:39;100778.25;;;17.46;100.00
23321;BME280;33376;51.306;4.752;2023-07-22T05:45:06;100713.78;;;17.37;100.00
23321;BME280;33376;51.306;4.752;2023-07-22T05:47:31;100640.16;;;17.41;100.00
23321;BME280;33376;51.306;4.752;2023-07-22T05:49:56;100567.09;;;17.39;100.00
23321;BME280;33376;51.306;4.752;2023-07-22T05:52:22;100534.50;;;17.34;100.00
23321;BME280;33376;51.306;4.752;2023-07-22T05:54:47;100520.72;;;17.78;100.00
23321;BME280;33376;51.306;4.752;2023-07-22T05:57:12;100495.16;;;17.65;100.00
23321;BME280;33376;51.306;4.752;2023-07-22T05:59:37;100471.41;;;17.30;100.00
23321;BME280;33376;51.306;4.752;2023-07-22T06:02:04;100477.22;;;17.05;100.00
23321;BME280;33376;51.306;4.752;2023-07-22T06:04:30;100487.09;;;17.04;100.00
23321;BME280;33376;51.306;4.752;2023-07-22T06:06:55;100501.13;;;17.17;100.00
23321;BME280;33376;51.306;4.752;2023-07-22T06:09:20;100519.44;;;17.73;100.00
23321;BME280;33376;51.306;4.752;2023-07-22T06:11:46;100459.47;;;17.93;100.00
23321;BME280;33376;51.306;4.752;2023-07-22T06:14:11;100419.84;;;18.80;100.00
23321;BME280;33376;51.306;4.752;2023-07-22T06:16:37;100371.13;;;18.66;100.00
23321;BME280;33376;51.306;4.752;2023-07-22T06:19:02;100320.50;;;18.98;100.00
23321;BME280;33376;51.306;4.752;2023-07-22T06:21:28;100240.56;;;19.27;100.00
23321;BME280;33376;51.306;4.752;2023-07-22T06:23:54;100219.13;;;19.96;100.00
23321;BME280;33376;51.306;4.752;2023-07-22T06:26:19;100156.44;;;19.78;100.00
23321;BME280;33376;51.306;4.752;2023-07-22T06:28:44;100102.47;;;20.13;100.00
23321;BME280;33376;51.306;4.752;2023-07-22T06:31:09;99992.94;;;20.13;100.00
23321;BME280;33376;51.306;4.752;2023-07-22T06:33:35;100037.75;;;19.47;100.00
23321;BME280;33376;51.306;4.752;2023-07-22T06:36:01;100030.97;;;19.69;100.00
23321;BME280;33376;51.306;4.752;2023-07-22T06:38:26;100060.44;;;19.78;100.00
23321;BME280;33376;51.306;4.752;2023-07-22T06:40:54;100076.53;;;19.70;100.00
23321;BME280;33376;51.306;4.752;2023-07-22T06:43:20;100076.66;;;19.94;100.00
23321;BME280;33376;51.306;4.752;2023-07-22T06:45:45;100062.91;;;20.87;100.00
23321;BME280;33376;51.306;4.752;2023-07-22T06:48:10;99991.47;;;21.70;100.00
23321;BME280;33376;51.306;4.752;2023-07-22T06:50:35;99944.44;;;22.48;100.00
23321;BME280;33376;51.306;4.752;2023-07-22T06:53:01;99947.13;;;23.08;100.00
23321;BME280;33376;51.306;4.752;2023-07-22T06:55:26;100065.47;;;23.21;100.00
23321;BME280;33376;51.306;4.752;2023-07-22T06:57:51;100172.03;;;22.89;100.00
23321;BME280;33376;51.306;4.752;2023-07-22T07:00:16;100245.34;;;23.25;100.00
23321;BME280;33376;51.306;4.752;2023-07-22T07:02:42;100381.78;;;23.30;100.00
23321;BME280;33376;51.306;4.752;2023-07-22T07:05:07;100405.47;;;23.89;100.00
23321;BME280;33376;51.306;4.752;2023-07-22T07:07:32;100521.81;;;24.44;100.00
23321;BME280;33376;51.306;4.752;2023-07-22T07:09:58;100724.22;;;25.21;100.00
23321;BME280;33376;51.306;4.752;2023-07-22T07:12:23;101037.13;;;25.53;100.00
23321;BME280;33376;51.306;4.752;2023-07-22T07:14:52;101200.16;;;24.30;100.00
23321;BME280;33376;51.306;4.752;2023-07-22T07:17:18;101234.13;;;23.91;100.00
23321;BME280;33376;51.306;4.752;2023-07-22T07:19:43;101263.41;;;22.99;100.00
23321;BME280;33376;51.306;4.752;2023-07-22T07:22:08;101269.28;;;22.04;100.00
23321;BME280;33376;51.306;4.752;2023-07-22T07:24:33;101222.47;;;21.48;100.00
23321;BME280;33376;51.306;4.752;2023-07-22T07:26:59;101087.22;;;21.24;100.00
23321;BME280;33376;51.306;4.752;2023-07-22T07:29:24;100977.31;;;20.99;100.00
23321;BME280;33376;51.306;4.752;2023-07-22T07:31:49;100753.00;;;20.86;100.00
23321;BME280;33376;51.306;4.752;2023-07-22T07:34:14;100540.41;;;20.83;100.00
23321;BME280;33376;51.306;4.752;2023-07-22T07:36:39;100443.59;;;21.48;100.00
23321;BME280;33376;51.306;4.752;2023-07-22T07:39:05;100455.63;;;21.62;100.00
23321;BME280;33376;51.306;4.752;2023-07-22T07:41:30;100549.03;;;21.89;100.00
23321;BME280;33376;51.306;4.752;2023-07-22T07:43:55;100650.44;;;22.82;100.00
23321;BME280;33376;51.306;4.752;2023-07-22T07:46:21;100735.00;;;23.00;100.00
23321;BME280;33376;51.306;4.752;2023-07-22T07:48:48;100831.50;;;23.42;100.00
23321;BME280;33376;51.306;4.752;2023-07-22T07:51:13;100962.69;;;23.30;100.00
23321;BME280;33376;51.306;4.752;2023-07-22T07:53:39;100986.28;;;23.45;100.00
23321;BME280;33376;51.306;4.752;2023-07-22T07:56:04;101033.78;;;23.40;100.00
23321;BME280;33376;51.306;4.752;2023-07-22T07:58:30;101044.97;;;23.78;100.00
23321;BME280;33376;51.306;4.752;2023-07-22T08:00:55;101064.31;;;23.50;100.00
23321;BME280;33376;51.306;4.752;2023-07-22T08:03:20;101078.00;;;23.82;100.00
23321;BME280;33376;51.306;4.752;2023-07-22T08:05:46;101097.47;;;24.19;100.00
23321;BME280;33376;51.306;4.752;2023-07-22T08:08:11;101140.41;;;23.98;100.00
23321;BME280;33376;51.306;4.752;2023-07-22T08:10:36;101189.84;;;24.99;100.00
23321;BME280;33376;51.306;4.752;2023-07-22T08:13:02;101232.06;;;24.78;100.00
23321;BME280;33376;51.306;4.752;2023-07-22T08:15:27;101223.84;;;25.35;100.00
23321;BME280;33376;51.306;4.752;2023-07-22T08:17:52;101216.69;;;25.58;100.00
23321;BME280;33376;51.306;4.752;2023-07-22T08:20:18;101216.81;;;25.89;100.00
23321;BME280;33376;51.306;4.752;2023-07-22T08:22:43;101246.19;;;25.21;100.00
23321;BME280;33376;51.306;4.752;2023-07-22T08:25:08;101250.88;;;24.79;100.00
23321;BME280;33376;51.306;4.752;2023-07-22T08:27:33;101298.41;;;24.66;100.00
23321;BME280;33376;51.306;4.752;2023-07-22T08:29:59;101288.09;;;24.35;100.00
23321;BME280;33376;51.306;4.752;2023-07-22T08:32:24;101325.56;;;24.40;100.00
23321;BME280;33376;51.306;4.752;2023-07-22T08:34:49;101315.31;;;24.85;100.00
23321;BME280;33376;51.306;4.752;2023-07-22T08:37:14;101261.31;;;26.04;100.00
23321;BME280;33376;51.306;4.752;2023-07-22T08:39:40;101202.28;;;26.98;100.00
23321;BME280;33376;51.306;4.752;2023-07-22T08:42:05;101146.44;;;27.02;100.00
23321;BME280;33376;51.306;4.752;2023-07-22T08:44:32;101112.88;;;28.19;100.00
23321;BME280;33376;51.306;4.752;2023-07-22T08:47:01;101044.81;;;28.11;100.00
23321;BME280;33376;51.306;4.752;2023-07-22T08:49:29;100942.56;;;29.73;100.00
23321;BME280;33376;51.306;4.752;2023-07-22T08:51:55;100850.50;;;30.78;100.00
23321;BME280;33376;51.306;4.752;2023-07-22T08:54:20;100872.13;;;30.99;100.00
23321;BME280;33376;51.306;4.752;2023-07-22T08:56:47;100855.38;;;29.31;100.00
23321;BME280;33376;51.306;4.752;2023-07-22T08:59:12;100905.13;;;27.59;100.00
23321;BME280;33376;51.306;4.752;2023-07-22T09:01:37;101017.22;;;28.21;100.00
23321;BME280;33376;51.306;4.752;2023-07-22T09:04:04;100970.00;;;28.20;100.00
23321;BME280;33376;51.306;4.752;2023-07-22T09:06:29;100981.75;;;28.00;100.00
23321;BME280;33376;51.306;4.752;2023-07-22T09:08:55;101017.50;;;28.26;100.00
23321;BME280;33376;51.306;4.752;2023-07-22T09:11:20;101076.59;;;27.46;100.00
23321;BME280;33376;51.306;4.752;2023-07-22T09:13:46;101072.56;;;27.42;100.00
23321;BME280;33376;51.306;4.752;2023-07-22T09:16:12;101097.91;;;27.05;100.00
23321;BME280;33376;51.306;4.752;2023-07-22T09:18:38;101094.50;;;26.36;100.00
23321;BME280;33376;51.306;4.752;2023-07-22T09:21:03;101156.56;;;26.32;100.00
23321;BME280;33376;51.306;4.752;2023-07-22T09:23:32;101127.38;;;26.26;100.00
23321;BME280;33376;51.306;4.752;2023-07-22T09:26:07;101155.41;;;25.72;100.00
23321;BME280;33376;51.306;4.752;2023-07-22T09:28:46;101176.66;;;25.60;100.00
23321;BME280;33376;51.306;4.752;2023-07-22T09:31:12;101138.41;;;25.78;100.00
23321;BME280;33376;51.306;4.752;2023-07-22T09:33:37;101196.66;;;25.19;100.00
23321;BME280;33376;51.306;4.752;2023-07-22T09:36:04;101167.66;;;25.44;100.00
23321;BME280;33376;51.306;4.752;2023-07-22T09:38:29;101174.44;;;25.16;100.00
23321;BME280;33376;51.306;4.752;2023-07-22T09:40:54;101228.19;;;25.12;100.00
23321;BME280;33376;51.306;4.752;2023-07-22T09:43:21;101238.03;;;25.13;100.00
23321;BME280;33376;51.306;4.752;2023-07-22T09:45:47;101219.31;;;23.77;100.00
23321;BME280;33376;51.306;4.752;2023-07-22T09:48:13;101256.94;;;24.06;100.00
23321;BME280;33376;51.306;4.752;2023-07-22T09:50:39;101248.47;;;24.34;100.00
23321;BME280;33376;51.306;4.752;2023-07-22T09:53:04;101252.06;;;24.51;100.00
23321;BME280;33376;51.306;4.752;2023-07-22T09:55:31;101198.00;;;24.99;100.00
23321;BME280;33376;51.306;4.752;2023-07-22T09:57:59;101204.69;;;24.63;100.00
23321;BME280;33376;51.306;4.752;2023-07-22T10:00:28;101210.59;;;25.16;100.00
23321;BME280;33376;51.306;4.752;2023-07-22T10:02:53;101148.81;;;25.02;100.00
23321;BME280;33376;51.306;4.752;2023-07-22T10:05:20;101128.31;;;25.40;100.00
23321;BME280;33376;51.306;4.752;2023-07-22T10:10:13;101194.94;;;25.02;100.00
23321;BME280;33376;51.306;4.752;2023-07-22T10:12:40;101197.00;;;25.16;100.00
23321;BME280;33376;51.306;4.752;2023-07-22T10:15:07;101100.25;;;25.55;100.00
23321;BME280;33376;51.306;4.752;2023-07-22T10:17:32;101085.13;;;26.08;100.00
23321;BME280;33376;51.306;4.752;2023-07-22T10:19:58;101107.91;;;25.99;100.00
23321;BME280;33376;51.306;4.752;2023-07-22T10:22:24;101096.53;;;25.95;100.00
23321;BME280;33376;51.306;4.752;2023-07-22T10:24:49;101076.28;;;25.67;100.00
23321;BME280;33376;51.306;4.752;2023-07-22T10:27:15;101103.75;;;26.49;100.00
23321;BME280;33376;51.306;4.752;2023-07-22T10:29:41;101057.34;;;25.89;100.00
23321;BME280;33376;51.306;4.752;2023-07-22T10:32:09;101133.19;;;25.28;100.00
23321;BME280;33376;51.306;4.752;2023-07-22T10:34:34;101156.44;;;25.23;100.00
23321;BME280;33376;51.306;4.752;2023-07-22T10:36:59;101170.00;;;25.31;100.00
23321;BME280;33376;51.306;4.752;2023-07-22T10:39:27;101094.47;;;25.58;100.00
23321;BME280;33376;51.306;4.752;2023-07-22T10:42:14;101102.13;;;25.55;100.00
23321;BME280;33376;51.306;4.752;2023-07-22T10:44:41;101098.50;;;26.17;100.00
23321;BME280;33376;51.306;4.752;2023-07-22T10:47:07;100999.03;;;26.31;100.00
23321;BME280;33376;51.306;4.752;2023-07-22T10:49:45;100961.03;;;27.70;100.00
23321;BME280;33376;51.306;4.752;2023-07-22T10:52:12;100926.25;;;28.28;100.00
23321;BME280;33376;51.306;4.752;2023-07-22T10:54:39;100820.91;;;28.55;100.00
23321;BME280;33376;51.306;4.752;2023-07-22T10:59:39;100896.50;;;28.12;100.00
23321;BME280;33376;51.306;4.752;2023-07-22T11:02:22;100789.81;;;27.94;100.00
23321;BME280;33376;51.306;4.752;2023-07-22T11:04:47;100900.84;;;27.86;100.00
23321;BME280;33376;51.306;4.752;2023-07-22T11:07:13;100826.78;;;27.82;100.00
23321;BME280;33376;51.306;4.752;2023-07-22T11:09:38;100853.59;;;27.79;100.00
23321;BME280;33376;51.306;4.752;2023-07-22T11:16:59;100914.09;;;27.09;100.00
23321;BME280;33376;51.306;4.752;2023-07-22T11:19:26;100887.63;;;26.74;100.00
23321;BME280;33376;51.306;4.752;2023-07-22T11:21:52;100848.03;;;26.86;100.00
23321;BME280;33376;51.306;4.752;2023-07-22T11:24:18;100851.75;;;27.14;100.00
23321;BME280;33376;51.306;4.752;2023-07-22T11:26:44;100778.69;;;26.39;100.00
23321;BME280;33376;51.306;4.752;2023-07-22T11:29:10;100848.00;;;26.57;100.00
23321;BME280;33376;51.306;4.752;2023-07-22T11:31:37;100894.66;;;26.32;100.00
23321;BME280;33376;51.306;4.752;2023-07-22T11:34:05;100888.63;;;25.76;100.00
23321;BME280;33376;51.306;4.752;2023-07-22T11:36:31;100852.72;;;26.12;100.00
23321;BME280;33376;51.306;4.752;2023-07-22T11:39:06;100807.63;;;26.17;100.00
23321;BME280;33376;51.306;4.752;2023-07-22T11:41:32;100674.41;;;26.96;100.00
23321;BME280;33376;51.306;4.752;2023-07-22T11:43:57;100769.81;;;27.09;100.00
23321;BME280;33376;51.306;4.752;2023-07-22T11:46:23;100681.09;;;26.44;100.00
23321;BME280;33376;51.306;4.752;2023-07-22T11:48:51;100839.09;;;27.07;100.00
23321;BME280;33376;51.306;4.752;2023-07-22T11:51:18;100704.44;;;26.67;100.00
23321;BME280;33376;51.306;4.752;2023-07-22T11:53:45;100801.88;;;26.78;100.00
23321;BME280;33376;51.306;4.752;2023-07-22T11:56:11;100757.41;;;26.28;100.00
23321;BME280;33376;51.306;4.752;2023-07-22T11:58:36;100768.19;;;25.84;100.00
23321;BME280;33376;51.306;4.752;2023-07-22T12:01:10;100843.66;;;25.51;100.00
23321;BME280;33376;51.306;4.752;2023-07-22T12:03:35;100881.50;;;26.21;100.00
23321;BME280;33376;51.306;4.752;2023-07-22T12:06:03;100829.09;;;27.43;100.00
23321;BME280;33376;51.306;4.752;2023-07-22T12:08:29;100906.22;;;27.29;100.00
23321;BME280;33376;51.306;4.752;2023-07-22T12:10:57;100735.66;;;27.07;100.00
23321;BME280;33376;51.306;4.752;2023-07-22T12:13:23;100708.97;;;28.08;100.00
23321;BME280;33376;51.306;4.752;2023-07-22T12:16:01;100643.69;;;28.47;100.00
23321;BME280;33376;51.306;4.752;2023-07-22T12:18:26;100586.06;;;28.56;100.00
23321;BME280;33376;51.306;4.752;2023-07-22T12:20:51;100633.81;;;27.92;100.00
23321;BME280;33376;51.306;4.752;2023-07-22T12:23:17;100584.84;;;28.79;100.00
23321;BME280;33376;51.306;4.752;2023-07-22T12:25:43;100585.91;;;28.91;100.00
23321;BME280;33376;51.306;4.752;2023-07-22T12:28:08;100527.34;;;29.32;100.00
23321;BME280;33376;51.306;4.752;2023-07-22T12:30:35;100582.63;;;28.41;100.00
23321;BME280;33376;51.306;4.752;2023-07-22T12:33:01;100613.34;;;28.56;100.00
23321;BME280;33376;51.306;4.752;2023-07-22T12:35:27;100634.97;;;28.58;100.00
23321;BME280;33376;51.306;4.752;2023-07-22T12:37:52;100646.06;;;28.09;100.00
23321;BME280;33376;51.306;4.752;2023-07-22T12:40:17;100594.84;;;27.71;100.00
23321;BME280;33376;51.306;4.752;2023-07-22T12:42:42;100705.72;;;27.07;100.00
23321;BME280;33376;51.306;4.752;2023-07-22T12:45:08;100755.63;;;26.78;100.00